This is the latest recevied weather packets stored in our database for station/object HB9DOZ-13. If no packets are shown the sender has not sent any weather packets the latest 10 day(s).
| Time | Temp. | Humidity | Pressure | Rain* | Wind** | Luminosity | Snow |
|---|---|---|---|---|---|---|---|
| 1777082115 | 10° C | 56% | - | 0 mm | - | - | - |
| 1777080316 | 10.56° C | 53% | - | 0 mm | - | - | - |
| 1777073115 | 11.67° C | 46% | - | 0 mm | - | - | - |
| 1777067117 | 12.22° C | 39% | - | 0 mm | - | - | - |
| 1777065358 | 12.78° C | 41% | - | 0 mm | - | - | - |
| 1777064716 | 13.33° C | 41% | - | 0 mm | - | - | - |
| 1777060516 | 15.56° C | 38% | - | 0 mm | - | - | - |
| 1777056939 | 16.11° C | 41% | - | 0 mm | - | - | - |
| 1777055116 | 15.56° C | 46% | - | 0 mm | - | - | - |
| 1777053317 | 16.67° C | 45% | - | 0 mm | - | - | - |
| 1777052116 | 18.33° C | 45% | - | 0 mm | - | - | - |
| 1777050916 | 18.89° C | 41% | - | 0 mm | - | - | - |
| 1777050316 | 19.44° C | 38% | - | 0 mm | - | - | - |
| 1777048518 | 20° C | 39% | - | 0 mm | - | - | - |
| 1777047915 | 20° C | 38% | - | 0 mm | - | - | - |
| 1777045517 | 20.56° C | 36% | - | 0 mm | - | - | - |
| 1777041317 | 20.56° C | 36% | - | 0 mm | - | - | - |
| 1777037117 | 20° C | 36% | - | 0 mm | - | - | - |
| 1777035315 | 20° C | 38% | - | 0 mm | - | - | - |
| 1777033517 | 19.44° C | 39% | - | 0 mm | - | - | - |
| 1777023917 | 16.67° C | 45% | - | 0 mm | - | - | - |
| 1777022116 | 15.56° C | 51% | - | 0 mm | - | - | - |
| 1777019115 | 13.33° C | 59% | - | 0 mm | - | - | - |
| 1777013716 | 11.67° C | 59% | - | 0 mm | - | - | - |
| 1777013116 | 11.11° C | 56% | - | 0 mm | - | - | - |
* Rain latest hour (hover to see other rain measurements)
** Current wind speed in m/s (hover to see current wind gust speed)